sensor_id;sensor_type;location;lat;lon;timestamp;P1;durP1;ratioP1;P2;durP2;ratioP2
49722;SDS011;43484;43.608;1.458;2022-12-07T00:01:31;27.00;;;15.38;;
49722;SDS011;43484;43.608;1.458;2022-12-07T00:04:00;26.15;;;14.13;;
49722;SDS011;43484;43.608;1.458;2022-12-07T00:06:32;21.02;;;12.30;;
49722;SDS011;43484;43.608;1.458;2022-12-07T00:09:01;24.00;;;11.73;;
49722;SDS011;43484;43.608;1.458;2022-12-07T00:11:27;20.85;;;12.82;;
49722;SDS011;43484;43.608;1.458;2022-12-07T00:13:58;24.33;;;12.25;;
49722;SDS011;43484;43.608;1.458;2022-12-07T00:16:27;23.80;;;12.77;;
49722;SDS011;43484;43.608;1.458;2022-12-07T00:18:56;34.42;;;17.17;;
49722;SDS011;43484;43.608;1.458;2022-12-07T00:21:24;23.00;;;12.90;;
49722;SDS011;43484;43.608;1.458;2022-12-07T00:23:52;19.90;;;12.23;;
49722;SDS011;43484;43.608;1.458;2022-12-07T00:26:24;22.05;;;10.98;;
49722;SDS011;43484;43.608;1.458;2022-12-07T00:28:53;21.23;;;11.20;;
49722;SDS011;43484;43.608;1.458;2022-12-07T00:31:23;20.95;;;12.57;;
49722;SDS011;43484;43.608;1.458;2022-12-07T00:33:52;20.83;;;12.30;;
49722;SDS011;43484;43.608;1.458;2022-12-07T00:36:20;23.63;;;12.95;;
49722;SDS011;43484;43.608;1.458;2022-12-07T00:38:53;29.85;;;14.27;;
49722;SDS011;43484;43.608;1.458;2022-12-07T00:41:21;26.27;;;13.63;;
49722;SDS011;43484;43.608;1.458;2022-12-07T00:43:49;23.88;;;11.85;;
49722;SDS011;43484;43.608;1.458;2022-12-07T00:46:17;20.73;;;12.10;;
49722;SDS011;43484;43.608;1.458;2022-12-07T00:48:45;22.05;;;12.23;;
49722;SDS011;43484;43.608;1.458;2022-12-07T00:51:13;19.10;;;11.35;;
49722;SDS011;43484;43.608;1.458;2022-12-07T00:53:42;22.83;;;12.13;;
49722;SDS011;43484;43.608;1.458;2022-12-07T00:56:09;17.63;;;10.18;;
49722;SDS011;43484;43.608;1.458;2022-12-07T00:58:38;20.73;;;10.70;;
49722;SDS011;43484;43.608;1.458;2022-12-07T01:01:05;18.48;;;11.32;;
49722;SDS011;43484;43.608;1.458;2022-12-07T01:03:33;19.80;;;11.90;;
49722;SDS011;43484;43.608;1.458;2022-12-07T01:06:02;24.27;;;11.85;;
49722;SDS011;43484;43.608;1.458;2022-12-07T01:08:29;19.08;;;11.35;;
49722;SDS011;43484;43.608;1.458;2022-12-07T01:11:03;21.17;;;12.40;;
49722;SDS011;43484;43.608;1.458;2022-12-07T01:13:32;16.85;;;10.23;;
49722;SDS011;43484;43.608;1.458;2022-12-07T01:16:01;18.30;;;10.55;;
49722;SDS011;43484;43.608;1.458;2022-12-07T01:18:30;16.25;;;10.43;;
49722;SDS011;43484;43.608;1.458;2022-12-07T01:23:31;20.77;;;10.40;;
49722;SDS011;43484;43.608;1.458;2022-12-07T01:26:00;19.33;;;10.98;;
49722;SDS011;43484;43.608;1.458;2022-12-07T01:28:28;22.17;;;11.20;;
49722;SDS011;43484;43.608;1.458;2022-12-07T01:30:58;13.93;;;9.38;;
49722;SDS011;43484;43.608;1.458;2022-12-07T01:33:27;17.48;;;9.90;;
49722;SDS011;43484;43.608;1.458;2022-12-07T01:36:05;21.27;;;10.65;;
49722;SDS011;43484;43.608;1.458;2022-12-07T01:38:34;16.95;;;10.38;;
49722;SDS011;43484;43.608;1.458;2022-12-07T01:41:01;15.13;;;9.63;;
49722;SDS011;43484;43.608;1.458;2022-12-07T01:43:29;19.73;;;11.15;;
49722;SDS011;43484;43.608;1.458;2022-12-07T01:45:57;15.25;;;9.75;;
49722;SDS011;43484;43.608;1.458;2022-12-07T01:48:26;15.82;;;10.82;;
49722;SDS011;43484;43.608;1.458;2022-12-07T01:50:57;20.67;;;12.18;;
49722;SDS011;43484;43.608;1.458;2022-12-07T01:53:29;19.45;;;11.27;;
49722;SDS011;43484;43.608;1.458;2022-12-07T01:55:58;24.67;;;12.52;;
49722;SDS011;43484;43.608;1.458;2022-12-07T01:58:25;21.88;;;12.27;;
49722;SDS011;43484;43.608;1.458;2022-12-07T02:00:52;20.75;;;11.60;;
49722;SDS011;43484;43.608;1.458;2022-12-07T02:03:20;22.40;;;11.95;;
49722;SDS011;43484;43.608;1.458;2022-12-07T02:05:52;21.20;;;12.40;;
49722;SDS011;43484;43.608;1.458;2022-12-07T02:08:20;24.30;;;12.63;;
49722;SDS011;43484;43.608;1.458;2022-12-07T02:10:47;22.67;;;12.35;;
49722;SDS011;43484;43.608;1.458;2022-12-07T02:21:07;25.80;;;14.30;;
49722;SDS011;43484;43.608;1.458;2022-12-07T02:24:03;26.00;;;13.05;;
49722;SDS011;43484;43.608;1.458;2022-12-07T02:29:23;27.77;;;14.20;;
49722;SDS011;43484;43.608;1.458;2022-12-07T02:32:01;24.05;;;13.27;;
49722;SDS011;43484;43.608;1.458;2022-12-07T02:37:07;25.70;;;13.68;;
49722;SDS011;43484;43.608;1.458;2022-12-07T02:42:23;25.08;;;14.15;;
49722;SDS011;43484;43.608;1.458;2022-12-07T02:44:53;27.42;;;14.48;;
49722;SDS011;43484;43.608;1.458;2022-12-07T02:47:20;29.30;;;14.20;;
49722;SDS011;43484;43.608;1.458;2022-12-07T02:49:48;26.73;;;15.25;;
49722;SDS011;43484;43.608;1.458;2022-12-07T02:52:15;28.85;;;14.68;;
49722;SDS011;43484;43.608;1.458;2022-12-07T02:54:42;24.48;;;13.98;;
49722;SDS011;43484;43.608;1.458;2022-12-07T03:18:52;31.63;;;16.40;;
49722;SDS011;43484;43.608;1.458;2022-12-07T03:21:47;33.60;;;17.20;;
49722;SDS011;43484;43.608;1.458;2022-12-07T03:24:22;27.42;;;16.40;;
49722;SDS011;43484;43.608;1.458;2022-12-07T03:26:53;36.90;;;17.23;;
49722;SDS011;43484;43.608;1.458;2022-12-07T03:29:31;34.55;;;18.40;;
49722;SDS011;43484;43.608;1.458;2022-12-07T03:32:05;32.42;;;17.65;;
49722;SDS011;43484;43.608;1.458;2022-12-07T03:34:46;30.70;;;18.83;;
49722;SDS011;43484;43.608;1.458;2022-12-07T03:40:17;31.58;;;18.77;;
49722;SDS011;43484;43.608;1.458;2022-12-07T03:42:51;36.58;;;19.58;;
49722;SDS011;43484;43.608;1.458;2022-12-07T03:45:21;37.65;;;18.98;;
49722;SDS011;43484;43.608;1.458;2022-12-07T03:48:03;34.47;;;19.15;;
49722;SDS011;43484;43.608;1.458;2022-12-07T03:50:54;34.80;;;18.45;;
49722;SDS011;43484;43.608;1.458;2022-12-07T03:53:33;34.35;;;19.17;;
49722;SDS011;43484;43.608;1.458;2022-12-07T03:56:06;38.13;;;20.15;;
49722;SDS011;43484;43.608;1.458;2022-12-07T03:58:35;34.38;;;18.67;;
49722;SDS011;43484;43.608;1.458;2022-12-07T04:01:03;34.05;;;19.90;;
49722;SDS011;43484;43.608;1.458;2022-12-07T04:03:29;35.67;;;19.15;;
49722;SDS011;43484;43.608;1.458;2022-12-07T04:05:56;40.50;;;20.90;;
49722;SDS011;43484;43.608;1.458;2022-12-07T04:08:24;33.33;;;20.95;;
49722;SDS011;43484;43.608;1.458;2022-12-07T04:10:52;35.97;;;19.98;;
49722;SDS011;43484;43.608;1.458;2022-12-07T04:13:20;35.50;;;20.25;;
49722;SDS011;43484;43.608;1.458;2022-12-07T04:15:46;39.03;;;20.65;;
49722;SDS011;43484;43.608;1.458;2022-12-07T04:18:13;37.22;;;21.25;;
49722;SDS011;43484;43.608;1.458;2022-12-07T04:20:39;43.60;;;21.40;;
49722;SDS011;43484;43.608;1.458;2022-12-07T04:23:06;37.05;;;21.17;;
49722;SDS011;43484;43.608;1.458;2022-12-07T04:25:32;39.00;;;21.98;;
49722;SDS011;43484;43.608;1.458;2022-12-07T04:27:59;36.30;;;20.73;;
49722;SDS011;43484;43.608;1.458;2022-12-07T04:30:26;38.22;;;22.15;;
49722;SDS011;43484;43.608;1.458;2022-12-07T04:32:53;39.00;;;21.92;;
49722;SDS011;43484;43.608;1.458;2022-12-07T04:35:20;43.72;;;22.45;;
49722;SDS011;43484;43.608;1.458;2022-12-07T04:37:47;41.72;;;22.88;;
49722;SDS011;43484;43.608;1.458;2022-12-07T04:40:13;38.83;;;21.30;;
49722;SDS011;43484;43.608;1.458;2022-12-07T04:42:40;47.47;;;23.40;;
49722;SDS011;43484;43.608;1.458;2022-12-07T04:45:07;43.90;;;23.92;;
49722;SDS011;43484;43.608;1.458;2022-12-07T04:47:34;41.88;;;23.67;;
49722;SDS011;43484;43.608;1.458;2022-12-07T04:50:01;39.22;;;22.48;;
49722;SDS011;43484;43.608;1.458;2022-12-07T04:52:28;46.92;;;23.23;;
49722;SDS011;43484;43.608;1.458;2022-12-07T04:54:55;40.80;;;21.77;;
49722;SDS011;43484;43.608;1.458;2022-12-07T04:57:21;37.92;;;23.25;;
49722;SDS011;43484;43.608;1.458;2022-12-07T04:59:48;46.10;;;24.45;;
49722;SDS011;43484;43.608;1.458;2022-12-07T05:02:14;46.88;;;24.17;;
49722;SDS011;43484;43.608;1.458;2022-12-07T05:04:41;43.28;;;23.48;;
49722;SDS011;43484;43.608;1.458;2022-12-07T05:07:07;41.10;;;23.27;;
49722;SDS011;43484;43.608;1.458;2022-12-07T05:09:34;36.53;;;22.65;;
49722;SDS011;43484;43.608;1.458;2022-12-07T05:12:00;41.40;;;24.50;;
49722;SDS011;43484;43.608;1.458;2022-12-07T05:14:27;42.22;;;24.63;;
49722;SDS011;43484;43.608;1.458;2022-12-07T05:16:53;40.72;;;23.48;;
49722;SDS011;43484;43.608;1.458;2022-12-07T05:19:20;44.28;;;23.95;;
49722;SDS011;43484;43.608;1.458;2022-12-07T05:21:47;44.20;;;23.70;;
49722;SDS011;43484;43.608;1.458;2022-12-07T05:24:14;49.70;;;25.02;;
49722;SDS011;43484;43.608;1.458;2022-12-07T05:26:42;45.55;;;24.23;;
49722;SDS011;43484;43.608;1.458;2022-12-07T05:29:12;45.42;;;24.88;;
49722;SDS011;43484;43.608;1.458;2022-12-07T05:31:41;45.30;;;24.02;;
49722;SDS011;43484;43.608;1.458;2022-12-07T05:34:08;44.45;;;24.52;;
49722;SDS011;43484;43.608;1.458;2022-12-07T05:36:34;50.20;;;25.20;;
49722;SDS011;43484;43.608;1.458;2022-12-07T05:39:01;47.88;;;26.77;;
49722;SDS011;43484;43.608;1.458;2022-12-07T05:41:27;41.97;;;25.30;;
49722;SDS011;43484;43.608;1.458;2022-12-07T05:46:39;42.70;;;24.00;;
49722;SDS011;43484;43.608;1.458;2022-12-07T05:49:05;44.05;;;25.42;;
49722;SDS011;43484;43.608;1.458;2022-12-07T05:51:32;48.97;;;27.70;;
49722;SDS011;43484;43.608;1.458;2022-12-07T05:53:59;46.90;;;26.05;;
49722;SDS011;43484;43.608;1.458;2022-12-07T05:56:25;42.03;;;24.10;;
49722;SDS011;43484;43.608;1.458;2022-12-07T05:58:52;42.90;;;25.30;;
49722;SDS011;43484;43.608;1.458;2022-12-07T06:01:39;42.63;;;24.50;;
49722;SDS011;43484;43.608;1.458;2022-12-07T06:04:06;46.92;;;26.30;;
49722;SDS011;43484;43.608;1.458;2022-12-07T06:06:32;48.85;;;24.95;;
49722;SDS011;43484;43.608;1.458;2022-12-07T06:08:59;47.40;;;22.95;;
49722;SDS011;43484;43.608;1.458;2022-12-07T06:11:26;40.67;;;22.90;;
49722;SDS011;43484;43.608;1.458;2022-12-07T06:16:37;40.83;;;23.02;;
49722;SDS011;43484;43.608;1.458;2022-12-07T06:19:04;41.63;;;24.00;;
49722;SDS011;43484;43.608;1.458;2022-12-07T06:21:30;48.38;;;24.70;;
49722;SDS011;43484;43.608;1.458;2022-12-07T06:23:57;41.10;;;24.88;;
49722;SDS011;43484;43.608;1.458;2022-12-07T06:26:24;46.75;;;26.23;;
49722;SDS011;43484;43.608;1.458;2022-12-07T06:28:50;47.45;;;25.60;;
49722;SDS011;43484;43.608;1.458;2022-12-07T06:31:17;44.03;;;27.05;;
49722;SDS011;43484;43.608;1.458;2022-12-07T06:33:43;44.95;;;26.02;;
49722;SDS011;43484;43.608;1.458;2022-12-07T06:36:10;42.65;;;25.15;;
49722;SDS011;43484;43.608;1.458;2022-12-07T06:38:37;45.17;;;24.70;;
49722;SDS011;43484;43.608;1.458;2022-12-07T06:41:04;49.22;;;25.85;;
49722;SDS011;43484;43.608;1.458;2022-12-07T06:43:31;44.58;;;24.92;;
49722;SDS011;43484;43.608;1.458;2022-12-07T06:45:57;44.70;;;23.85;;
49722;SDS011;43484;43.608;1.458;2022-12-07T06:48:24;46.28;;;24.33;;
49722;SDS011;43484;43.608;1.458;2022-12-07T06:50:51;45.60;;;24.67;;
49722;SDS011;43484;43.608;1.458;2022-12-07T06:53:20;47.20;;;24.30;;
49722;SDS011;43484;43.608;1.458;2022-12-07T06:55:48;37.53;;;22.58;;
49722;SDS011;43484;43.608;1.458;2022-12-07T06:58:14;38.42;;;22.33;;
49722;SDS011;43484;43.608;1.458;2022-12-07T07:00:41;53.90;;;25.55;;
49722;SDS011;43484;43.608;1.458;2022-12-07T07:03:08;48.35;;;24.30;;
49722;SDS011;43484;43.608;1.458;2022-12-07T07:05:34;41.00;;;23.65;;
49722;SDS011;43484;43.608;1.458;2022-12-07T07:08:02;43.67;;;24.25;;
49722;SDS011;43484;43.608;1.458;2022-12-07T07:10:49;58.53;;;25.00;;
49722;SDS011;43484;43.608;1.458;2022-12-07T07:13:15;50.50;;;25.88;;
49722;SDS011;43484;43.608;1.458;2022-12-07T07:15:42;43.90;;;23.45;;
49722;SDS011;43484;43.608;1.458;2022-12-07T07:18:09;42.00;;;23.40;;
49722;SDS011;43484;43.608;1.458;2022-12-07T07:20:35;44.78;;;24.38;;
49722;SDS011;43484;43.608;1.458;2022-12-07T07:23:03;44.22;;;23.17;;
49722;SDS011;43484;43.608;1.458;2022-12-07T07:25:29;43.15;;;22.27;;
49722;SDS011;43484;43.608;1.458;2022-12-07T07:27:56;38.28;;;22.13;;
49722;SDS011;43484;43.608;1.458;2022-12-07T07:30:23;39.22;;;22.55;;
49722;SDS011;43484;43.608;1.458;2022-12-07T07:32:49;41.13;;;22.63;;
49722;SDS011;43484;43.608;1.458;2022-12-07T07:35:16;39.42;;;21.88;;
49722;SDS011;43484;43.608;1.458;2022-12-07T07:37:43;43.95;;;22.38;;
49722;SDS011;43484;43.608;1.458;2022-12-07T07:40:10;48.28;;;21.73;;
49722;SDS011;43484;43.608;1.458;2022-12-07T07:42:37;39.25;;;21.77;;
49722;SDS011;43484;43.608;1.458;2022-12-07T07:45:03;41.20;;;21.20;;
49722;SDS011;43484;43.608;1.458;2022-12-07T07:47:31;38.88;;;21.45;;
49722;SDS011;43484;43.608;1.458;2022-12-07T07:49:57;38.38;;;21.85;;
49722;SDS011;43484;43.608;1.458;2022-12-07T07:52:24;40.47;;;21.65;;
49722;SDS011;43484;43.608;1.458;2022-12-07T07:54:51;43.78;;;22.17;;
49722;SDS011;43484;43.608;1.458;2022-12-07T07:57:18;45.53;;;22.27;;
49722;SDS011;43484;43.608;1.458;2022-12-07T07:59:44;39.05;;;21.70;;
49722;SDS011;43484;43.608;1.458;2022-12-07T08:02:15;41.80;;;23.10;;
49722;SDS011;43484;43.608;1.458;2022-12-07T08:04:44;43.60;;;21.67;;
49722;SDS011;43484;43.608;1.458;2022-12-07T08:07:11;38.08;;;21.15;;
49722;SDS011;43484;43.608;1.458;2022-12-07T08:09:38;43.13;;;22.25;;
49722;SDS011;43484;43.608;1.458;2022-12-07T08:12:05;43.65;;;22.88;;
49722;SDS011;43484;43.608;1.458;2022-12-07T08:14:32;45.38;;;22.27;;
49722;SDS011;43484;43.608;1.458;2022-12-07T08:17:00;43.67;;;23.65;;
49722;SDS011;43484;43.608;1.458;2022-12-07T08:19:26;52.38;;;23.38;;
49722;SDS011;43484;43.608;1.458;2022-12-07T08:21:53;48.70;;;23.10;;
49722;SDS011;43484;43.608;1.458;2022-12-07T08:24:21;45.72;;;22.48;;
49722;SDS011;43484;43.608;1.458;2022-12-07T08:26:48;45.25;;;23.55;;
49722;SDS011;43484;43.608;1.458;2022-12-07T08:29:16;45.90;;;21.88;;
49722;SDS011;43484;43.608;1.458;2022-12-07T08:31:43;39.28;;;21.08;;
49722;SDS011;43484;43.608;1.458;2022-12-07T08:34:10;36.95;;;20.08;;
49722;SDS011;43484;43.608;1.458;2022-12-07T08:36:37;35.00;;;18.70;;
49722;SDS011;43484;43.608;1.458;2022-12-07T08:39:05;38.58;;;19.27;;
49722;SDS011;43484;43.608;1.458;2022-12-07T08:41:52;29.95;;;16.88;;
49722;SDS011;43484;43.608;1.458;2022-12-07T08:44:18;29.83;;;18.83;;
49722;SDS011;43484;43.608;1.458;2022-12-07T08:46:49;32.65;;;20.02;;
49722;SDS011;43484;43.608;1.458;2022-12-07T08:49:24;29.42;;;17.27;;
49722;SDS011;43484;43.608;1.458;2022-12-07T08:51:57;31.42;;;18.63;;
49722;SDS011;43484;43.608;1.458;2022-12-07T08:54:24;33.50;;;18.38;;
49722;SDS011;43484;43.608;1.458;2022-12-07T08:56:51;33.60;;;18.40;;
49722;SDS011;43484;43.608;1.458;2022-12-07T08:59:24;35.03;;;17.57;;
49722;SDS011;43484;43.608;1.458;2022-12-07T09:01:52;30.33;;;17.08;;
49722;SDS011;43484;43.608;1.458;2022-12-07T09:04:19;31.67;;;16.77;;
49722;SDS011;43484;43.608;1.458;2022-12-07T09:06:46;32.20;;;17.70;;
49722;SDS011;43484;43.608;1.458;2022-12-07T09:09:14;30.88;;;17.27;;
49722;SDS011;43484;43.608;1.458;2022-12-07T09:11:41;31.17;;;16.80;;
49722;SDS011;43484;43.608;1.458;2022-12-07T09:14:07;24.45;;;14.68;;
49722;SDS011;43484;43.608;1.458;2022-12-07T09:16:34;26.85;;;14.95;;
49722;SDS011;43484;43.608;1.458;2022-12-07T09:19:01;26.23;;;15.40;;
49722;SDS011;43484;43.608;1.458;2022-12-07T09:21:27;30.55;;;16.92;;
49722;SDS011;43484;43.608;1.458;2022-12-07T09:23:54;29.35;;;16.67;;
49722;SDS011;43484;43.608;1.458;2022-12-07T09:26:21;26.05;;;15.48;;
49722;SDS011;43484;43.608;1.458;2022-12-07T09:28:47;24.10;;;14.07;;
49722;SDS011;43484;43.608;1.458;2022-12-07T09:31:14;24.98;;;15.15;;
49722;SDS011;43484;43.608;1.458;2022-12-07T09:33:57;34.22;;;14.10;;
49722;SDS011;43484;43.608;1.458;2022-12-07T09:36:25;24.92;;;15.23;;
49722;SDS011;43484;43.608;1.458;2022-12-07T09:38:52;27.25;;;15.88;;
49722;SDS011;43484;43.608;1.458;2022-12-07T09:41:19;30.73;;;15.93;;
49722;SDS011;43484;43.608;1.458;2022-12-07T09:43:48;18.27;;;12.85;;
49722;SDS011;43484;43.608;1.458;2022-12-07T09:46:16;18.45;;;13.00;;
49722;SDS011;43484;43.608;1.458;2022-12-07T09:48:46;27.63;;;14.02;;
49722;SDS011;43484;43.608;1.458;2022-12-07T09:51:16;26.48;;;13.82;;
49722;SDS011;43484;43.608;1.458;2022-12-07T09:53:49;25.27;;;14.18;;
49722;SDS011;43484;43.608;1.458;2022-12-07T09:56:18;26.20;;;15.57;;
49722;SDS011;43484;43.608;1.458;2022-12-07T09:58:45;24.33;;;14.38;;
49722;SDS011;43484;43.608;1.458;2022-12-07T10:01:20;24.38;;;13.80;;
49722;SDS011;43484;43.608;1.458;2022-12-07T10:06:19;20.35;;;12.63;;
49722;SDS011;43484;43.608;1.458;2022-12-07T10:08:46;19.90;;;11.57;;
49722;SDS011;43484;43.608;1.458;2022-12-07T10:11:13;20.08;;;11.85;;
49722;SDS011;43484;43.608;1.458;2022-12-07T10:13:42;22.38;;;12.07;;
49722;SDS011;43484;43.608;1.458;2022-12-07T10:18:50;22.10;;;12.43;;
49722;SDS011;43484;43.608;1.458;2022-12-07T10:21:18;17.67;;;10.90;;
49722;SDS011;43484;43.608;1.458;2022-12-07T10:29:02;17.95;;;11.23;;
49722;SDS011;43484;43.608;1.458;2022-12-07T10:31:40;20.60;;;13.23;;
49722;SDS011;43484;43.608;1.458;2022-12-07T10:34:42;17.38;;;12.10;;
49722;SDS011;43484;43.608;1.458;2022-12-07T10:42:09;19.33;;;11.30;;
49722;SDS011;43484;43.608;1.458;2022-12-07T10:44:44;20.20;;;12.45;;
49722;SDS011;43484;43.608;1.458;2022-12-07T10:57:31;18.70;;;9.05;;
49722;SDS011;43484;43.608;1.458;2022-12-07T11:00:24;14.05;;;8.13;;
49722;SDS011;43484;43.608;1.458;2022-12-07T11:08:44;18.58;;;8.85;;
49722;SDS011;43484;43.608;1.458;2022-12-07T11:11:26;13.15;;;8.02;;
49722;SDS011;43484;43.608;1.458;2022-12-07T11:22:25;13.23;;;7.90;;
49722;SDS011;43484;43.608;1.458;2022-12-07T11:33:36;13.75;;;8.63;;
49722;SDS011;43484;43.608;1.458;2022-12-07T11:38:44;19.90;;;8.68;;
49722;SDS011;43484;43.608;1.458;2022-12-07T11:41:32;11.98;;;8.07;;
49722;SDS011;43484;43.608;1.458;2022-12-07T11:44:16;13.90;;;9.25;;
49722;SDS011;43484;43.608;1.458;2022-12-07T11:47:06;17.30;;;10.77;;
49722;SDS011;43484;43.608;1.458;2022-12-07T11:49:53;26.88;;;13.55;;
49722;SDS011;43484;43.608;1.458;2022-12-07T11:52:30;13.25;;;9.30;;
49722;SDS011;43484;43.608;1.458;2022-12-07T11:55:16;16.00;;;9.73;;
49722;SDS011;43484;43.608;1.458;2022-12-07T11:57:56;12.45;;;8.15;;
49722;SDS011;43484;43.608;1.458;2022-12-07T12:00:29;15.68;;;8.63;;
49722;SDS011;43484;43.608;1.458;2022-12-07T12:03:09;16.38;;;8.45;;
49722;SDS011;43484;43.608;1.458;2022-12-07T12:05:41;13.15;;;7.68;;
49722;SDS011;43484;43.608;1.458;2022-12-07T12:08:27;14.18;;;7.32;;
49722;SDS011;43484;43.608;1.458;2022-12-07T12:14:24;9.55;;;6.57;;
49722;SDS011;43484;43.608;1.458;2022-12-07T12:22:41;12.95;;;7.78;;
49722;SDS011;43484;43.608;1.458;2022-12-07T12:25:16;14.48;;;8.77;;
49722;SDS011;43484;43.608;1.458;2022-12-07T12:27:49;20.60;;;9.50;;
49722;SDS011;43484;43.608;1.458;2022-12-07T12:30:24;14.68;;;9.75;;
49722;SDS011;43484;43.608;1.458;2022-12-07T12:33:01;16.80;;;9.40;;
49722;SDS011;43484;43.608;1.458;2022-12-07T12:36:16;21.48;;;8.85;;
49722;SDS011;43484;43.608;1.458;2022-12-07T12:51:46;16.05;;;7.75;;
49722;SDS011;43484;43.608;1.458;2022-12-07T13:02:22;14.43;;;7.20;;
49722;SDS011;43484;43.608;1.458;2022-12-07T13:10:20;11.82;;;6.40;;
49722;SDS011;43484;43.608;1.458;2022-12-07T13:13:02;11.77;;;6.80;;
49722;SDS011;43484;43.608;1.458;2022-12-07T13:15:49;10.38;;;7.32;;
49722;SDS011;43484;43.608;1.458;2022-12-07T13:20:59;9.75;;;5.45;;
49722;SDS011;43484;43.608;1.458;2022-12-07T13:28:46;14.32;;;5.75;;
49722;SDS011;43484;43.608;1.458;2022-12-07T13:33:59;12.88;;;4.72;;
49722;SDS011;43484;43.608;1.458;2022-12-07T13:36:32;8.73;;;5.35;;
49722;SDS011;43484;43.608;1.458;2022-12-07T13:41:41;7.30;;;4.32;;
49722;SDS011;43484;43.608;1.458;2022-12-07T13:44:09;11.38;;;4.40;;
49722;SDS011;43484;43.608;1.458;2022-12-07T13:49:19;4.90;;;3.67;;
49722;SDS011;43484;43.608;1.458;2022-12-07T13:51:48;8.90;;;3.78;;
49722;SDS011;43484;43.608;1.458;2022-12-07T13:54:16;7.13;;;3.88;;
49722;SDS011;43484;43.608;1.458;2022-12-07T13:56:46;10.07;;;4.15;;
49722;SDS011;43484;43.608;1.458;2022-12-07T13:59:19;10.05;;;4.90;;
49722;SDS011;43484;43.608;1.458;2022-12-07T14:01:49;7.68;;;4.50;;
49722;SDS011;43484;43.608;1.458;2022-12-07T14:04:17;10.48;;;5.07;;
49722;SDS011;43484;43.608;1.458;2022-12-07T14:06:53;8.85;;;5.57;;
49722;SDS011;43484;43.608;1.458;2022-12-07T14:09:21;10.90;;;5.28;;
49722;SDS011;43484;43.608;1.458;2022-12-07T14:11:51;10.07;;;5.57;;
49722;SDS011;43484;43.608;1.458;2022-12-07T14:14:29;7.35;;;4.95;;
49722;SDS011;43484;43.608;1.458;2022-12-07T14:17:12;10.95;;;4.90;;
49722;SDS011;43484;43.608;1.458;2022-12-07T14:27:46;12.00;;;6.43;;
49722;SDS011;43484;43.608;1.458;2022-12-07T14:30:15;12.07;;;7.00;;
49722;SDS011;43484;43.608;1.458;2022-12-07T14:32:44;9.32;;;6.55;;
49722;SDS011;43484;43.608;1.458;2022-12-07T14:35:15;15.07;;;7.28;;
49722;SDS011;43484;43.608;1.458;2022-12-07T14:37:44;14.20;;;6.88;;
49722;SDS011;43484;43.608;1.458;2022-12-07T14:40:15;11.23;;;6.82;;
49722;SDS011;43484;43.608;1.458;2022-12-07T14:42:43;11.05;;;6.70;;
49722;SDS011;43484;43.608;1.458;2022-12-07T14:45:13;10.80;;;7.97;;
49722;SDS011;43484;43.608;1.458;2022-12-07T14:47:41;11.80;;;7.13;;
49722;SDS011;43484;43.608;1.458;2022-12-07T14:50:28;12.82;;;7.78;;
49722;SDS011;43484;43.608;1.458;2022-12-07T14:53:01;14.32;;;7.40;;
49722;SDS011;43484;43.608;1.458;2022-12-07T14:55:51;17.10;;;7.43;;
49722;SDS011;43484;43.608;1.458;2022-12-07T14:58:18;12.38;;;7.82;;
49722;SDS011;43484;43.608;1.458;2022-12-07T15:00:45;17.55;;;7.32;;
49722;SDS011;43484;43.608;1.458;2022-12-07T15:03:11;12.75;;;8.23;;
49722;SDS011;43484;43.608;1.458;2022-12-07T15:05:39;13.55;;;6.35;;
49722;SDS011;43484;43.608;1.458;2022-12-07T15:08:13;11.35;;;5.10;;
49722;SDS011;43484;43.608;1.458;2022-12-07T15:10:40;8.95;;;5.35;;
49722;SDS011;43484;43.608;1.458;2022-12-07T15:13:07;6.80;;;5.07;;
49722;SDS011;43484;43.608;1.458;2022-12-07T15:15:53;11.60;;;4.55;;
49722;SDS011;43484;43.608;1.458;2022-12-07T15:18:21;12.90;;;4.93;;
49722;SDS011;43484;43.608;1.458;2022-12-07T15:20:49;13.32;;;4.85;;
49722;SDS011;43484;43.608;1.458;2022-12-07T15:23:16;9.95;;;5.53;;
49722;SDS011;43484;43.608;1.458;2022-12-07T15:25:44;10.52;;;5.25;;
49722;SDS011;43484;43.608;1.458;2022-12-07T15:28:13;12.15;;;6.38;;
49722;SDS011;43484;43.608;1.458;2022-12-07T15:30:41;10.07;;;5.68;;
49722;SDS011;43484;43.608;1.458;2022-12-07T15:33:09;10.45;;;5.65;;
49722;SDS011;43484;43.608;1.458;2022-12-07T15:35:40;15.77;;;6.13;;
49722;SDS011;43484;43.608;1.458;2022-12-07T15:38:08;8.40;;;5.32;;
49722;SDS011;43484;43.608;1.458;2022-12-07T15:40:34;10.65;;;5.43;;
49722;SDS011;43484;43.608;1.458;2022-12-07T15:43:02;13.60;;;5.60;;
49722;SDS011;43484;43.608;1.458;2022-12-07T15:45:29;15.98;;;5.82;;
49722;SDS011;43484;43.608;1.458;2022-12-07T15:47:56;7.45;;;5.10;;
49722;SDS011;43484;43.608;1.458;2022-12-07T15:50:43;7.85;;;5.43;;
49722;SDS011;43484;43.608;1.458;2022-12-07T15:53:09;10.52;;;5.50;;
49722;SDS011;43484;43.608;1.458;2022-12-07T15:55:38;10.15;;;5.15;;
49722;SDS011;43484;43.608;1.458;2022-12-07T15:58:05;16.33;;;6.38;;
49722;SDS011;43484;43.608;1.458;2022-12-07T16:00:31;11.80;;;6.40;;
49722;SDS011;43484;43.608;1.458;2022-12-07T16:02:59;9.75;;;5.40;;
49722;SDS011;43484;43.608;1.458;2022-12-07T16:05:26;15.75;;;5.10;;
49722;SDS011;43484;43.608;1.458;2022-12-07T16:07:53;7.90;;;4.57;;
49722;SDS011;43484;43.608;1.458;2022-12-07T16:10:19;7.45;;;4.30;;
49722;SDS011;43484;43.608;1.458;2022-12-07T16:12:46;8.27;;;5.35;;
49722;SDS011;43484;43.608;1.458;2022-12-07T16:15:12;8.45;;;5.35;;
49722;SDS011;43484;43.608;1.458;2022-12-07T16:17:39;10.20;;;5.47;;
49722;SDS011;43484;43.608;1.458;2022-12-07T16:20:06;10.50;;;5.68;;
49722;SDS011;43484;43.608;1.458;2022-12-07T16:22:34;8.60;;;5.43;;
49722;SDS011;43484;43.608;1.458;2022-12-07T16:25:01;8.48;;;5.60;;
49722;SDS011;43484;43.608;1.458;2022-12-07T16:27:28;20.80;;;9.98;;
49722;SDS011;43484;43.608;1.458;2022-12-07T16:29:55;18.70;;;8.20;;
49722;SDS011;43484;43.608;1.458;2022-12-07T16:32:21;14.30;;;7.25;;
49722;SDS011;43484;43.608;1.458;2022-12-07T16:34:48;15.00;;;8.82;;
49722;SDS011;43484;43.608;1.458;2022-12-07T16:37:14;14.05;;;7.70;;
49722;SDS011;43484;43.608;1.458;2022-12-07T16:39:41;12.07;;;7.68;;
49722;SDS011;43484;43.608;1.458;2022-12-07T16:42:07;17.17;;;7.70;;
49722;SDS011;43484;43.608;1.458;2022-12-07T16:44:34;13.77;;;8.38;;
49722;SDS011;43484;43.608;1.458;2022-12-07T16:47:01;14.43;;;8.77;;
49722;SDS011;43484;43.608;1.458;2022-12-07T16:49:28;17.08;;;9.63;;
49722;SDS011;43484;43.608;1.458;2022-12-07T16:51:55;21.38;;;8.95;;
49722;SDS011;43484;43.608;1.458;2022-12-07T16:54:41;22.00;;;8.75;;
49722;SDS011;43484;43.608;1.458;2022-12-07T16:57:08;15.27;;;7.82;;
49722;SDS011;43484;43.608;1.458;2022-12-07T16:59:34;14.65;;;7.75;;
49722;SDS011;43484;43.608;1.458;2022-12-07T17:02:01;16.50;;;7.65;;
49722;SDS011;43484;43.608;1.458;2022-12-07T17:04:29;20.52;;;8.93;;
49722;SDS011;43484;43.608;1.458;2022-12-07T17:06:56;11.43;;;6.75;;
49722;SDS011;43484;43.608;1.458;2022-12-07T17:09:23;9.38;;;5.82;;
49722;SDS011;43484;43.608;1.458;2022-12-07T17:11:50;14.20;;;6.20;;
49722;SDS011;43484;43.608;1.458;2022-12-07T17:14:17;12.30;;;6.90;;
49722;SDS011;43484;43.608;1.458;2022-12-07T17:17:02;15.02;;;6.35;;
49722;SDS011;43484;43.608;1.458;2022-12-07T17:19:30;17.17;;;6.80;;
49722;SDS011;43484;43.608;1.458;2022-12-07T17:21:57;12.60;;;7.30;;